Time;durP1;ratioP1;P1;durP2;ratioP2;P2;SDS_P1;SDS_P2;PMS_P1;PMS_P2;Temp;Humidity;BMP_temperature;BMP_pressure;BME280_temperature;BME280_humidity;BME280_pressure;Samples;Min_cycle;Max_cycle;Signal;HPM_P1;HPM_P2
2021/05/31 00:00:06;;;;;;;6.53;5.53;;;10.70;82.50;;;;;;5024450;28;20354;-83
2021/05/31 00:02:55;;;;;;;10.33;5.47;;;10.70;82.60;;;;;;5030705;28;20214;-81
2021/05/31 00:05:25;;;;;;;7.83;4.83;;;10.70;82.60;;;;;;5038263;28;20203;-82
2021/05/31 00:07:55;;;;;;;5.83;4.50;;;10.70;82.70;;;;;;5039120;28;20476;-82
2021/05/31 00:10:25;;;;;;;5.40;4.70;;;10.60;82.60;;;;;;5031668;28;20665;-81
2021/05/31 00:12:53;;;;;;;6.20;4.80;;;10.50;82.80;;;;;;5037638;28;20265;-82
2021/05/31 00:15:21;;;;;;;6.63;5.07;;;10.50;82.90;;;;;;5030709;28;20198;-82
2021/05/31 00:17:50;;;;;;;6.87;5.13;;;10.50;83.20;;;;;;5017401;28;20204;-81
2021/05/31 00:20:18;;;;;;;5.30;4.80;;;10.50;83.10;;;;;;5042302;28;20222;-82
2021/05/31 00:22:47;;;;;;;5.83;4.80;;;10.50;83.20;;;;;;5046708;28;20429;-82
2021/05/31 00:25:15;;;;;;;7.43;4.70;;;10.50;83.10;;;;;;5027534;28;20191;-82
2021/05/31 00:27:43;;;;;;;6.23;4.90;;;10.50;83.20;;;;;;5023191;28;20322;-82
2021/05/31 00:30:13;;;;;;;6.20;4.80;;;10.60;83.10;;;;;;5026574;28;20755;-83
2021/05/31 00:32:42;;;;;;;5.27;4.50;;;10.60;83.10;;;;;;5015388;28;20429;-82
2021/05/31 00:35:11;;;;;;;4.60;4.20;;;10.70;82.90;;;;;;5023526;28;20568;-83
2021/05/31 00:37:40;;;;;;;6.20;4.87;;;10.60;82.90;;;;;;5017903;28;20210;-83
2021/05/31 00:40:10;;;;;;;5.20;3.93;;;10.60;82.80;;;;;;5018281;28;20237;-82
2021/05/31 00:42:39;;;;;;;6.13;4.33;;;10.50;82.80;;;;;;5019987;28;20195;-83
2021/05/31 00:45:08;;;;;;;6.03;4.40;;;10.50;82.80;;;;;;5016607;28;20201;-82
2021/05/31 00:47:36;;;;;;;5.77;4.20;;;10.50;82.90;;;;;;5017005;28;20250;-83
2021/05/31 00:50:06;;;;;;;6.07;4.60;;;10.50;82.80;;;;;;5022044;28;20624;-82
2021/05/31 00:52:35;;;;;;;8.30;4.47;;;10.40;82.80;;;;;;5016790;28;20199;-81
2021/05/31 00:55:06;;;;;;;5.27;4.60;;;10.40;82.90;;;;;;5020204;28;20202;-84
2021/05/31 00:57:33;;;;;;;5.60;4.50;;;10.30;83.10;;;;;;5018453;28;20214;-83
2021/05/31 01:00:02;;;;;;;5.63;4.13;;;10.30;83.00;;;;;;5014928;28;20230;-82
2021/05/31 01:02:30;;;;;;;5.03;4.43;;;10.10;83.10;;;;;;5026149;28;20229;-84
2021/05/31 01:04:58;;;;;;;5.03;4.50;;;10.20;83.20;;;;;;5019141;28;20257;-82
2021/05/31 01:07:34;;;;;;;4.90;4.00;;;10.20;83.20;;;;;;5026145;28;20457;-81
2021/05/31 01:10:09;;;;;;;6.13;4.77;;;10.10;83.40;;;;;;5021009;28;20732;-83
2021/05/31 01:12:45;;;;;;;7.63;4.37;;;10.00;83.50;;;;;;5040839;28;20210;-83
2021/05/31 01:15:17;;;;;;;4.50;4.10;;;10.00;83.70;;;;;;5018914;28;20195;-83
2021/05/31 01:17:53;;;;;;;6.10;4.20;;;10.00;83.70;;;;;;5020016;28;20262;-83
2021/05/31 01:20:35;;;;;;;4.63;4.07;;;10.00;83.80;;;;;;5033502;28;20210;-81
2021/05/31 01:23:06;;;;;;;7.00;4.20;;;10.00;83.80;;;;;;5019967;28;20212;-82
2021/05/31 01:25:42;;;;;;;4.40;4.00;;;10.00;83.40;;;;;;5024309;28;20702;-83
2021/05/31 01:28:45;;;;;;;4.37;3.97;;;10.00;83.60;;;;;;5028963;28;20565;-84
2021/05/31 01:31:17;;;;;;;5.63;4.20;;;10.00;83.40;;;;;;5034756;28;20195;-83
2021/05/31 01:33:49;;;;;;;5.27;4.00;;;10.00;83.40;;;;;;5030387;28;20232;-84
2021/05/31 01:36:21;;;;;;;6.20;4.33;;;9.90;83.40;;;;;;5024735;28;20195;-83
2021/05/31 01:38:51;;;;;;;6.60;4.47;;;9.80;83.40;;;;;;5036977;28;20294;-82
2021/05/31 01:41:20;;;;;;;6.00;4.20;;;9.80;83.40;;;;;;5042898;28;20245;-82
2021/05/31 01:43:49;;;;;;;5.43;3.90;;;9.80;83.60;;;;;;5043953;28;20218;-84
2021/05/31 01:46:20;;;;;;;5.70;4.17;;;9.80;83.80;;;;;;5045874;28;20201;-83
2021/05/31 01:48:51;;;;;;;4.63;3.67;;;9.70;83.60;;;;;;5048092;28;20178;-83
2021/05/31 01:51:20;;;;;;;4.70;4.30;;;9.70;83.90;;;;;;5041446;28;20829;-81
2021/05/31 01:53:50;;;;;;;6.13;4.00;;;9.60;83.80;;;;;;5026795;28;20308;-81
2021/05/31 01:56:19;;;;;;;5.40;4.27;;;9.60;83.80;;;;;;5034907;28;20337;-81
2021/05/31 01:58:49;;;;;;;5.83;3.57;;;9.60;83.70;;;;;;5022710;28;20252;-82
2021/05/31 02:01:19;;;;;;;7.10;4.37;;;9.60;83.60;;;;;;5025991;28;20312;-81
2021/05/31 02:03:47;;;;;;;4.60;3.97;;;9.60;83.70;;;;;;5019934;28;20563;-83
2021/05/31 02:06:15;;;;;;;8.67;4.40;;;9.60;83.60;;;;;;5024430;28;20229;-82
2021/05/31 02:08:43;;;;;;;4.77;4.17;;;9.60;83.60;;;;;;5026429;28;21042;-81
2021/05/31 02:11:20;;;;;;;5.50;4.10;;;9.50;83.80;;;;;;5028835;28;20301;-84
2021/05/31 02:13:52;;;;;;;7.07;4.77;;;9.40;83.90;;;;;;5036222;28;20629;-83
2021/05/31 02:16:28;;;;;;;5.47;4.23;;;9.40;84.20;;;;;;5028213;28;20197;-83
2021/05/31 02:19:01;;;;;;;7.60;4.43;;;9.30;84.10;;;;;;5013481;28;20243;-83
2021/05/31 02:21:34;;;;;;;7.53;4.73;;;9.30;84.20;;;;;;5024719;28;20197;-84
2021/05/31 02:24:02;;;;;;;4.60;4.10;;;9.30;84.30;;;;;;5034258;28;20689;-82
2021/05/31 02:26:32;;;;;;;5.37;4.50;;;9.30;84.30;;;;;;5049266;28;20221;-82
2021/05/31 02:29:00;;;;;;;6.13;4.33;;;9.30;84.10;;;;;;5035438;28;21000;-83
2021/05/31 02:31:32;;;;;;;4.20;3.80;;;9.30;84.20;;;;;;5021982;28;20205;-83
2021/05/31 02:34:00;;;;;;;6.33;4.67;;;9.30;84.30;;;;;;5021364;28;20196;-82
2021/05/31 02:36:28;;;;;;;6.10;4.77;;;9.30;84.40;;;;;;5027256;28;20231;-83
2021/05/31 02:38:56;;;;;;;6.13;4.23;;;9.30;84.30;;;;;;5019608;28;20216;-81
2021/05/31 02:41:24;;;;;;;8.23;4.27;;;9.40;84.30;;;;;;5029671;28;20397;-82
2021/05/31 02:43:52;;;;;;;6.13;4.57;;;9.30;84.20;;;;;;5027104;28;20196;-83
2021/05/31 02:46:20;;;;;;;7.60;4.70;;;9.30;84.10;;;;;;5024644;28;20206;-83
2021/05/31 02:48:52;;;;;;;4.07;3.67;;;9.30;84.10;;;;;;5023035;28;20191;-83
2021/05/31 02:51:20;;;;;;;4.80;4.03;;;9.30;84.10;;;;;;5022279;28;20223;-82
2021/05/31 02:53:48;;;;;;;4.40;3.97;;;9.40;84.20;;;;;;5023452;28;20616;-83
2021/05/31 02:56:16;;;;;;;5.43;3.63;;;9.30;84.10;;;;;;5023345;28;20201;-84
2021/05/31 02:58:44;;;;;;;4.70;4.27;;;9.40;84.00;;;;;;5023415;28;20237;-81
2021/05/31 03:01:14;;;;;;;6.70;4.43;;;9.50;83.90;;;;;;5034423;28;20464;-82
2021/05/31 03:03:43;;;;;;;5.43;4.20;;;9.50;83.90;;;;;;5033919;28;20223;-83
2021/05/31 03:06:12;;;;;;;5.03;4.40;;;9.50;83.90;;;;;;5033124;28;20204;-82
2021/05/31 03:08:40;;;;;;;5.70;4.20;;;9.50;83.90;;;;;;5027286;28;20238;-82
2021/05/31 03:11:08;;;;;;;5.97;4.13;;;9.50;83.90;;;;;;5021854;28;20309;-82
2021/05/31 03:13:40;;;;;;;5.97;4.50;;;9.50;84.00;;;;;;5015461;28;20206;-81
2021/05/31 03:16:08;;;;;;;6.30;4.67;;;9.60;84.10;;;;;;5022345;28;20831;-81
2021/05/31 03:18:36;;;;;;;6.80;3.80;;;9.60;84.10;;;;;;5024231;28;20579;-82
2021/05/31 03:21:05;;;;;;;6.10;4.00;;;9.60;84.00;;;;;;5023102;28;20590;-86
2021/05/31 03:23:34;;;;;;;4.77;4.13;;;9.60;83.90;;;;;;5025145;28;20194;-82
2021/05/31 03:26:02;;;;;;;4.80;4.30;;;9.60;84.00;;;;;;5019005;28;20205;-82
2021/05/31 03:28:30;;;;;;;6.90;4.17;;;9.60;84.00;;;;;;5022091;28;20565;-82
2021/05/31 03:30:58;;;;;;;4.53;4.00;;;9.70;83.80;;;;;;5021067;28;20919;-82
2021/05/31 03:33:26;;;;;;;7.23;4.50;;;9.60;83.60;;;;;;5024475;28;20636;-84
2021/05/31 03:35:54;;;;;;;6.10;3.90;;;9.60;83.80;;;;;;5039898;28;20194;-83
2021/05/31 03:38:22;;;;;;;4.97;4.20;;;9.60;83.70;;;;;;5016872;28;20738;-83
2021/05/31 03:40:52;;;;;;;6.00;4.20;;;9.60;83.80;;;;;;5010643;28;20282;-83
2021/05/31 03:43:20;;;;;;;6.37;3.93;;;9.60;83.70;;;;;;5026350;28;20197;-82
2021/05/31 03:45:48;;;;;;;6.63;4.33;;;9.60;83.80;;;;;;5021627;28;20233;-82
2021/05/31 03:48:17;;;;;;;5.83;4.30;;;9.60;83.50;;;;;;5019640;28;20206;-83
2021/05/31 03:50:49;;;;;;;4.73;4.30;;;9.60;83.70;;;;;;5024181;28;20218;-82
2021/05/31 03:53:17;;;;;;;5.03;4.07;;;9.70;83.70;;;;;;5019310;28;20244;-83
2021/05/31 03:55:45;;;;;;;5.53;3.80;;;9.70;83.60;;;;;;5015134;28;20238;-84
2021/05/31 03:58:15;;;;;;;5.77;4.07;;;9.70;83.50;;;;;;5021815;28;20210;-80
2021/05/31 04:00:43;;;;;;;4.43;4.03;;;9.70;83.80;;;;;;5021976;28;20317;-80
2021/05/31 04:03:11;;;;;;;5.33;4.20;;;9.80;83.90;;;;;;5008460;28;20301;-83
2021/05/31 04:05:40;;;;;;;5.13;3.97;;;10.00;83.70;;;;;;5023973;28;20410;-82
2021/05/31 04:13:42;;;;;;;6.10;4.33;;;9.90;83.30;;;;;;5020581;28;20864;-82
2021/05/31 04:16:10;;;;;;;6.97;4.60;;;9.80;83.50;;;;;;5023012;28;20212;-82
2021/05/31 04:18:38;;;;;;;5.57;4.43;;;9.80;83.60;;;;;;5015448;28;20210;-81
2021/05/31 04:21:06;;;;;;;6.93;4.83;;;9.80;83.50;;;;;;5035218;28;20310;-81
2021/05/31 04:23:34;;;;;;;6.80;4.07;;;9.80;83.60;;;;;;5036173;28;20206;-82
2021/05/31 04:26:02;;;;;;;5.07;4.30;;;9.80;83.60;;;;;;5028210;28;20210;-81
2021/05/31 04:28:29;;;;;;;7.10;4.50;;;9.70;83.70;;;;;;5025954;28;20224;-83
2021/05/31 04:30:59;;;;;;;4.33;3.90;;;9.70;84.00;;;;;;5028016;28;20190;-83
2021/05/31 04:33:27;;;;;;;6.83;4.40;;;9.80;84.10;;;;;;5033259;28;20392;-80
2021/05/31 04:35:55;;;;;;;5.37;4.87;;;10.10;84.10;;;;;;5020695;28;20207;-85
2021/05/31 04:38:25;;;;;;;4.70;4.20;;;10.30;83.50;;;;;;5027063;28;20210;-84
2021/05/31 04:40:54;;;;;;;4.90;4.40;;;10.50;83.40;;;;;;5032201;28;20207;-82
2021/05/31 04:43:22;;;;;;;5.33;4.30;;;10.50;83.20;;;;;;5030323;28;20203;-84
2021/05/31 04:45:50;;;;;;;7.10;4.43;;;10.70;83.20;;;;;;5035575;28;20206;-85
2021/05/31 04:48:20;;;;;;;6.60;4.03;;;10.90;82.80;;;;;;5020831;28;20670;-82
2021/05/31 04:50:48;;;;;;;5.23;3.50;;;11.10;83.00;;;;;;5016009;28;20511;-85
2021/05/31 04:53:16;;;;;;;5.40;3.80;;;11.40;82.70;;;;;;5020060;28;20611;-84
2021/05/31 04:55:44;;;;;;;5.50;3.97;;;11.50;82.70;;;;;;5031888;28;20195;-81
2021/05/31 04:58:12;;;;;;;7.53;4.00;;;11.60;82.30;;;;;;5011255;28;20207;-84
2021/05/31 05:00:40;;;;;;;4.23;3.83;;;11.80;81.80;;;;;;5016496;28;20238;-80
2021/05/31 05:03:08;;;;;;;8.03;4.60;;;11.80;81.60;;;;;;5015382;28;20195;-82
2021/05/31 05:05:38;;;;;;;5.33;3.93;;;11.80;81.50;;;;;;5017437;28;20606;-81
2021/05/31 05:08:07;;;;;;;5.43;4.10;;;11.70;81.50;;;;;;5011972;28;20214;-83
2021/05/31 05:10:35;;;;;;;8.03;4.00;;;11.70;81.50;;;;;;5030227;28;20227;-82
2021/05/31 05:13:03;;;;;;;7.63;3.77;;;11.70;81.50;;;;;;5020868;28;20207;-82
2021/05/31 05:15:32;;;;;;;6.97;4.00;;;11.70;81.80;;;;;;5021654;28;20195;-83
2021/05/31 05:18:01;;;;;;;7.00;4.00;;;11.70;81.60;;;;;;5024682;28;20655;-83
2021/05/31 05:20:30;;;;;;;6.10;4.43;;;11.60;81.90;;;;;;5013811;28;20286;-83
2021/05/31 05:23:01;;;;;;;6.13;4.17;;;11.40;81.90;;;;;;5007531;28;20208;-84
2021/05/31 05:25:49;;;;;;;7.00;4.53;;;11.40;82.00;;;;;;5025421;28;20773;-82
2021/05/31 05:28:18;;;;;;;6.17;4.07;;;11.40;82.00;;;;;;5002560;28;20450;-82
2021/05/31 05:30:49;;;;;;;5.50;4.30;;;11.30;82.00;;;;;;5018940;28;20200;-81
2021/05/31 05:33:18;;;;;;;5.43;4.37;;;11.40;82.30;;;;;;5014349;28;20207;-82
2021/05/31 05:35:50;;;;;;;6.40;4.07;;;11.70;81.60;;;;;;5017393;28;20206;-83
2021/05/31 05:38:43;;;;;;;5.67;4.33;;;11.70;81.60;;;;;;5018848;28;21002;-82
2021/05/31 05:41:33;;;;;;;9.53;4.93;;;11.80;81.50;;;;;;5013905;28;20222;-82
2021/05/31 05:49:45;;;;;;;4.57;4.17;;;11.90;81.40;;;;;;4926329;28;20222;-82
2021/05/31 05:55:07;;;;;;;5.33;4.40;;;12.20;81.10;;;;;;4932023;29;20210;-83
2021/05/31 05:57:36;;;;;;;4.80;3.97;;;12.30;80.80;;;;;;4935217;29;20368;-84
2021/05/31 06:00:10;;;;;;;5.97;4.30;;;12.50;81.00;;;;;;4921531;29;20202;-87
2021/05/31 06:02:43;;;;;;;5.63;3.80;;;12.70;80.90;;;;;;4922019;29;20293;-84
2021/05/31 06:05:13;;;;;;;5.70;3.80;;;13.00;80.60;;;;;;4945334;28;20247;-84
2021/05/31 06:07:42;;;;;;;5.37;3.97;;;13.20;80.60;;;;;;4942234;28;20216;-85
2021/05/31 06:10:14;;;;;;;6.30;3.80;;;13.50;79.80;;;;;;4918742;28;20218;-80
2021/05/31 06:12:42;;;;;;;4.47;3.63;;;13.70;79.60;;;;;;4938361;28;20210;-83
2021/05/31 06:15:12;;;;;;;4.97;3.67;;;13.90;79.50;;;;;;4954486;28;20201;-84
2021/05/31 06:17:41;;;;;;;4.37;3.43;;;14.10;79.50;;;;;;4985710;28;20383;-85
2021/05/31 06:20:11;;;;;;;5.50;3.60;;;14.10;79.30;;;;;;5027903;28;20249;-84
2021/05/31 06:22:40;;;;;;;4.17;3.20;;;14.10;79.50;;;;;;5015228;28;20234;-81
2021/05/31 06:25:10;;;;;;;5.33;3.73;;;14.10;79.20;;;;;;5007567;28;20205;-84
2021/05/31 06:27:45;;;;;;;5.53;3.73;;;14.10;79.10;;;;;;5002794;28;20203;-84
2021/05/31 06:30:15;;;;;;;4.00;3.47;;;14.20;78.60;;;;;;5005776;28;20591;-82
2021/05/31 06:32:43;;;;;;;6.33;3.67;;;14.40;78.90;;;;;;5018573;28;20200;-84
2021/05/31 06:35:12;;;;;;;4.73;3.30;;;14.60;78.50;;;;;;5027415;28;20194;-81
2021/05/31 06:37:40;;;;;;;6.47;3.80;;;14.70;78.50;;;;;;4994524;28;20265;-86
2021/05/31 06:40:12;;;;;;;4.37;3.60;;;14.60;78.00;;;;;;5012644;28;20195;-81
2021/05/31 06:42:41;;;;;;;3.60;2.70;;;14.80;78.00;;;;;;5003876;28;20230;-85
2021/05/31 06:45:14;;;;;;;4.90;3.10;;;15.00;76.70;;;;;;4994128;28;20257;-84
2021/05/31 06:47:42;;;;;;;3.10;2.80;;;15.00;75.60;;;;;;4990593;28;20229;-84
2021/05/31 06:50:12;;;;;;;3.30;2.73;;;14.90;75.20;;;;;;5013484;28;20208;-80
2021/05/31 06:52:40;;;;;;;5.87;3.07;;;15.10;75.40;;;;;;5006748;28;20456;-81
2021/05/31 06:55:09;;;;;;;3.50;2.60;;;15.20;74.60;;;;;;5019500;28;20204;-82
2021/05/31 06:57:38;;;;;;;4.97;2.20;;;15.30;74.60;;;;;;5013610;28;20750;-80
2021/05/31 07:00:09;;;;;;;3.47;1.93;;;15.40;74.00;;;;;;5001402;28;20258;-86
2021/05/31 07:02:38;;;;;;;3.27;2.43;;;15.40;73.70;;;;;;5010097;28;20386;-81
2021/05/31 07:05:09;;;;;;;2.93;2.50;;;15.30;73.60;;;;;;5014580;28;20233;-82
2021/05/31 07:07:38;;;;;;;6.37;2.90;;;15.40;74.70;;;;;;5011331;28;20215;-84
2021/05/31 07:10:09;;;;;;;2.57;2.33;;;15.60;74.10;;;;;;5006389;28;20262;-83
2021/05/31 07:12:37;;;;;;;5.17;2.60;;;15.70;72.50;;;;;;4998679;28;20294;-84
2021/05/31 07:15:07;;;;;;;4.73;2.70;;;15.80;72.90;;;;;;5000747;28;20227;-82
2021/05/31 07:17:36;;;;;;;4.20;2.20;;;15.90;71.70;;;;;;5000413;28;20506;-84
2021/05/31 07:20:11;;;;;;;7.37;2.43;;;16.00;71.30;;;;;;5008140;28;20419;-82
2021/05/31 07:22:42;;;;;;;6.30;2.50;;;16.10;71.20;;;;;;5002886;28;20229;-82
2021/05/31 07:25:13;;;;;;;5.57;2.63;;;16.10;70.90;;;;;;5008815;28;20471;-83
2021/05/31 07:27:42;;;;;;;4.63;2.93;;;16.10;69.00;;;;;;5002931;28;20195;-83
2021/05/31 07:30:13;;;;;;;7.00;2.90;;;16.20;69.50;;;;;;4990124;28;20618;-81
2021/05/31 07:32:41;;;;;;;4.23;2.80;;;16.30;68.70;;;;;;4997822;28;20215;-81
2021/05/31 07:35:12;;;;;;;3.60;2.30;;;16.30;68.80;;;;;;4995535;28;20195;-83
2021/05/31 07:37:40;;;;;;;2.90;2.50;;;16.30;69.10;;;;;;4996050;28;20752;-82
2021/05/31 07:40:12;;;;;;;3.30;2.40;;;16.30;68.60;;;;;;5010297;28;20467;-83
2021/05/31 07:42:41;;;;;;;3.93;2.17;;;16.30;68.20;;;;;;5009980;28;20330;-85
2021/05/31 07:45:11;;;;;;;1.10;1.07;;;16.50;67.60;;;;;;4989682;28;20402;-83
2021/05/31 07:47:39;;;;;;;1.90;1.80;;;16.70;66.50;;;;;;4996588;28;20476;-83
2021/05/31 07:50:09;;;;;;;2.60;2.07;;;16.50;66.20;;;;;;5006183;28;20214;-81
2021/05/31 07:52:39;;;;;;;4.23;2.20;;;16.50;65.20;;;;;;4982279;28;20360;-84
2021/05/31 07:55:11;;;;;;;2.00;1.90;;;16.40;65.70;;;;;;4996033;28;20199;-81
2021/05/31 07:57:40;;;;;;;2.07;1.87;;;16.20;65.40;;;;;;4993527;28;20414;-80
2021/05/31 08:00:11;;;;;;;4.40;1.80;;;16.20;65.80;;;;;;4993028;28;20217;-82
2021/05/31 08:02:41;;;;;;;3.23;1.60;;;16.00;64.50;;;;;;4993421;28;20562;-81
2021/05/31 08:05:12;;;;;;;2.63;1.90;;;15.80;65.10;;;;;;5007650;28;20199;-83
2021/05/31 08:07:41;;;;;;;2.10;1.90;;;15.80;65.30;;;;;;4993967;28;20217;-83
2021/05/31 08:10:11;;;;;;;4.10;1.90;;;15.70;64.50;;;;;;5001582;28;20255;-83
2021/05/31 08:12:39;;;;;;;2.00;1.90;;;15.70;65.20;;;;;;5000468;28;20689;-83
2021/05/31 08:15:09;;;;;;;2.40;2.20;;;15.70;65.90;;;;;;5002136;28;20387;-83
2021/05/31 08:17:38;;;;;;;2.50;2.10;;;15.70;65.50;;;;;;4995615;28;20203;-81
2021/05/31 08:20:09;;;;;;;3.43;1.93;;;15.70;64.40;;;;;;5001321;28;20203;-82
2021/05/31 08:22:38;;;;;;;3.93;2.23;;;15.50;64.40;;;;;;4998070;28;20787;-82
2021/05/31 08:25:15;;;;;;;2.70;1.93;;;15.50;65.40;;;;;;5001457;28;20194;-84
2021/05/31 08:27:43;;;;;;;1.90;1.70;;;16.00;65.10;;;;;;4998320;28;20203;-82
2021/05/31 08:30:13;;;;;;;2.97;1.90;;;16.50;64.60;;;;;;4998513;28;20715;-83
2021/05/31 08:32:42;;;;;;;2.67;1.93;;;17.00;63.50;;;;;;4995460;28;20237;-84
2021/05/31 08:35:10;;;;;;;2.20;2.00;;;17.00;62.30;;;;;;4982929;28;20195;-82
2021/05/31 08:37:39;;;;;;;3.20;1.70;;;17.00;62.70;;;;;;4983037;28;20277;-82
2021/05/31 08:40:09;;;;;;;2.37;1.90;;;16.90;62.70;;;;;;5013637;28;20227;-83
2021/05/31 08:42:42;;;;;;;1.93;1.83;;;16.90;62.20;;;;;;4999816;28;20231;-83
2021/05/31 08:45:13;;;;;;;2.17;1.67;;;17.20;63.30;;;;;;5001305;28;20207;-81
2021/05/31 08:47:43;;;;;;;2.60;1.50;;;17.40;62.30;;;;;;4997972;28;20359;-83
2021/05/31 08:50:15;;;;;;;1.77;1.67;;;17.20;61.00;;;;;;4997942;28;20308;-82
2021/05/31 08:52:44;;;;;;;2.13;1.60;;;16.60;61.00;;;;;;4986923;28;20393;-81
2021/05/31 08:55:15;;;;;;;2.87;1.60;;;16.40;62.20;;;;;;4998515;28;20194;-85
2021/05/31 08:57:49;;;;;;;2.03;1.93;;;16.40;62.20;;;;;;4991748;28;20207;-83
2021/05/31 09:00:19;;;;;;;3.57;1.70;;;16.70;61.60;;;;;;4991774;28;20214;-82
2021/05/31 09:03:25;;;;;;;3.97;2.47;;;17.30;61.10;;;;;;4988081;28;20242;-82
2021/05/31 09:06:16;;;;;;;1.57;1.47;;;17.70;61.10;;;;;;4985614;28;20702;-82
2021/05/31 09:09:03;;;;;;;1.80;1.70;;;17.70;60.20;;;;;;4996921;28;21112;-87
2021/05/31 09:11:32;;;;;;;2.00;1.80;;;17.30;59.70;;;;;;4998266;28;20511;-82
2021/05/31 09:14:02;;;;;;;4.07;2.00;;;17.40;60.50;;;;;;4976099;28;20484;-81
2021/05/31 09:16:32;;;;;;;2.33;1.77;;;17.50;60.10;;;;;;4991786;28;20234;-83
2021/05/31 09:19:04;;;;;;;1.80;1.70;;;17.40;59.50;;;;;;4986803;28;20230;-84
2021/05/31 09:21:34;;;;;;;1.80;1.57;;;17.40;58.90;;;;;;4990641;28;20215;-83
2021/05/31 09:24:03;;;;;;;5.40;2.00;;;17.40;58.20;;;;;;4981490;28;20524;-82
2021/05/31 09:26:45;;;;;;;2.27;1.73;;;17.40;59.70;;;;;;4995025;28;20380;-83
2021/05/31 09:29:15;;;;;;;2.10;1.90;;;17.70;58.90;;;;;;4999893;28;20213;-82
2021/05/31 09:31:43;;;;;;;1.77;1.63;;;17.50;58.80;;;;;;5003314;28;20986;-85
2021/05/31 09:34:13;;;;;;;3.67;1.60;;;17.20;56.90;;;;;;4997122;28;20202;-82
2021/05/31 09:40:50;;;;;;;2.00;1.80;;;17.90;58.60;;;;;;4988648;28;20204;-83
2021/05/31 09:43:20;;;;;;;4.47;1.90;;;18.00;56.30;;;;;;4990225;28;20230;-84
2021/05/31 09:45:51;;;;;;;2.03;1.90;;;17.80;57.10;;;;;;4996198;28;20199;-85
2021/05/31 09:48:19;;;;;;;2.30;1.70;;;17.40;58.10;;;;;;4988483;28;20420;-84
2021/05/31 09:50:57;;;;;;;1.90;1.60;;;17.00;57.60;;;;;;4993117;28;20829;-83
2021/05/31 09:53:35;;;;;;;2.00;1.80;;;16.80;58.10;;;;;;4995043;28;20203;-82
2021/05/31 09:56:13;;;;;;;2.20;1.90;;;16.70;57.80;;;;;;4989768;28;20203;-83
2021/05/31 09:58:52;;;;;;;3.03;2.03;;;16.70;58.00;;;;;;4993442;28;20744;-86
2021/05/31 10:01:41;;;;;;;2.53;1.80;;;16.80;58.80;;;;;;5008573;28;20548;-82
2021/05/31 10:04:25;;;;;;;6.80;2.67;;;17.00;57.20;;;;;;4995002;28;20448;-81
2021/05/31 10:06:56;;;;;;;1.93;1.63;;;17.40;59.00;;;;;;4995314;28;20235;-84
2021/05/31 10:09:26;;;;;;;2.00;1.87;;;17.40;56.70;;;;;;5002626;28;20216;-81
2021/05/31 10:11:54;;;;;;;2.57;1.90;;;17.40;57.40;;;;;;4996702;28;20273;-80
2021/05/31 10:14:24;;;;;;;3.63;2.07;;;17.30;57.90;;;;;;5002941;28;20195;-82
2021/05/31 10:16:54;;;;;;;2.03;1.73;;;17.50;58.30;;;;;;5009766;28;20508;-85
2021/05/31 10:19:22;;;;;;;5.57;1.90;;;17.60;55.50;;;;;;4996017;28;20443;-84
2021/05/31 10:21:51;;;;;;;2.33;1.90;;;17.80;57.80;;;;;;5000997;28;20207;-82
2021/05/31 10:24:19;;;;;;;2.63;1.77;;;18.10;56.90;;;;;;4996753;28;20194;-82
2021/05/31 10:26:48;;;;;;;2.17;1.70;;;18.10;55.70;;;;;;5011866;28;20203;-83
2021/05/31 10:29:16;;;;;;;4.17;1.90;;;18.10;55.30;;;;;;5003994;28;20226;-85
2021/05/31 10:31:46;;;;;;;3.10;2.10;;;18.00;55.50;;;;;;5005294;28;20466;-83
2021/05/31 10:34:21;;;;;;;2.77;2.20;;;17.60;56.60;;;;;;4993601;28;20519;-83
2021/05/31 10:36:52;;;;;;;1.93;1.63;;;17.40;56.10;;;;;;4998611;28;20214;-83
2021/05/31 10:39:26;;;;;;;3.60;2.00;;;17.50;55.70;;;;;;4992222;28;20200;-82
2021/05/31 10:42:06;;;;;;;2.80;1.97;;;17.70;55.30;;;;;;4982496;28;20213;-82
2021/05/31 10:44:35;;;;;;;3.27;1.93;;;17.60;54.00;;;;;;4992648;28;20637;-83
2021/05/31 10:47:09;;;;;;;2.37;2.17;;;17.80;55.60;;;;;;5001836;28;20266;-83
2021/05/31 10:49:40;;;;;;;4.67;2.20;;;18.00;54.90;;;;;;4990702;28;20448;-83
2021/05/31 10:52:18;;;;;;;2.30;1.47;;;17.90;54.70;;;;;;4991575;28;20805;-84
2021/05/31 10:54:46;;;;;;;5.27;1.90;;;17.90;54.10;;;;;;4998400;28;20837;-83
2021/05/31 10:57:14;;;;;;;3.47;2.00;;;17.70;55.60;;;;;;4984484;28;20206;-83
2021/05/31 10:59:50;;;;;;;2.13;1.90;;;17.10;54.60;;;;;;4989410;28;20199;-82
2021/05/31 11:02:23;;;;;;;3.57;2.00;;;17.00;55.30;;;;;;4994017;28;20591;-84
2021/05/31 11:05:06;;;;;;;1.87;1.77;;;17.10;56.40;;;;;;4997362;28;20199;-83
2021/05/31 11:07:34;;;;;;;5.07;1.73;;;17.40;55.90;;;;;;4984373;28;20230;-81
2021/05/31 11:10:14;;;;;;;2.50;1.70;;;17.80;53.20;;;;;;4994402;28;20301;-82
2021/05/31 11:12:43;;;;;;;4.47;1.93;;;17.80;53.70;;;;;;4990556;28;20750;-80
2021/05/31 11:15:14;;;;;;;2.10;1.90;;;17.90;54.10;;;;;;4992480;28;20203;-85
2021/05/31 11:17:49;;;;;;;6.10;1.93;;;18.00;54.70;;;;;;4985074;28;20651;-81
2021/05/31 11:20:21;;;;;;;2.73;1.73;;;17.70;54.70;;;;;;4995683;28;20212;-83
2021/05/31 11:22:54;;;;;;;1.70;1.60;;;17.50;55.10;;;;;;5007128;28;20207;-81
2021/05/31 11:25:23;;;;;;;1.93;1.73;;;17.40;55.50;;;;;;4994928;28;20210;-83
2021/05/31 11:27:54;;;;;;;2.13;1.73;;;17.30;54.90;;;;;;4986030;28;20203;-81
2021/05/31 11:30:26;;;;;;;1.53;1.43;;;17.30;55.10;;;;;;4995082;28;20231;-83
2021/05/31 11:32:55;;;;;;;2.53;1.93;;;17.40;54.20;;;;;;4995335;28;20207;-85
2021/05/31 11:35:25;;;;;;;2.57;2.37;;;17.50;52.90;;;;;;4995545;28;20748;-82
2021/05/31 11:38:09;;;;;;;4.00;2.13;;;17.70;53.70;;;;;;4987650;28;20794;-83
2021/05/31 11:40:40;;;;;;;3.47;1.70;;;18.00;54.90;;;;;;4990912;28;20211;-85
2021/05/31 11:43:13;;;;;;;2.00;1.90;;;18.30;53.20;;;;;;4994609;28;20233;-82
2021/05/31 11:45:47;;;;;;;3.03;2.00;;;18.30;53.90;;;;;;4981499;28;20195;-81
2021/05/31 11:48:17;;;;;;;2.73;1.90;;;18.10;52.80;;;;;;4988620;28;20585;-84
2021/05/31 11:50:48;;;;;;;4.00;1.90;;;17.80;52.60;;;;;;4988368;28;20397;-82
2021/05/31 11:53:18;;;;;;;2.27;1.80;;;17.50;54.10;;;;;;4984842;28;20225;-81
2021/05/31 11:55:47;;;;;;;1.90;1.80;;;17.60;53.90;;;;;;5007466;28;20862;-81
2021/05/31 11:58:18;;;;;;;2.97;2.10;;;17.70;53.30;;;;;;4991886;28;20202;-82
2021/05/31 12:00:46;;;;;;;3.37;1.83;;;17.80;52.90;;;;;;4987425;28;20420;-83
2021/05/31 12:03:18;;;;;;;2.73;2.00;;;18.00;52.50;;;;;;5000133;28;20683;-84
2021/05/31 12:05:48;;;;;;;3.30;2.73;;;17.90;52.70;;;;;;4980647;28;20878;-83
2021/05/31 12:08:17;;;;;;;3.10;2.77;;;17.80;53.00;;;;;;4988575;28;20236;-83
2021/05/31 12:10:47;;;;;;;3.27;2.47;;;17.70;54.10;;;;;;5000904;28;20203;-82
2021/05/31 12:13:17;;;;;;;2.47;1.90;;;17.60;52.20;;;;;;4985781;28;20210;-82
2021/05/31 12:15:45;;;;;;;2.67;1.80;;;17.40;52.10;;;;;;4980418;28;20203;-83
2021/05/31 12:18:14;;;;;;;1.97;1.80;;;17.50;51.30;;;;;;4984828;28;20211;-85
2021/05/31 12:20:43;;;;;;;2.57;1.70;;;17.80;50.90;;;;;;4999236;28;20694;-82
2021/05/31 12:23:20;;;;;;;3.80;2.07;;;18.00;49.10;;;;;;4995752;28;20745;-85
2021/05/31 12:25:50;;;;;;;2.07;1.97;;;18.30;50.70;;;;;;4987275;28;20584;-81
2021/05/31 12:28:19;;;;;;;2.50;2.03;;;18.60;50.70;;;;;;4983851;28;20212;-84
2021/05/31 12:30:49;;;;;;;5.87;2.30;;;18.40;50.40;;;;;;4991177;28;20203;-84
2021/05/31 12:33:18;;;;;;;6.17;1.80;;;18.40;51.80;;;;;;4987197;28;21255;-83
2021/05/31 12:35:49;;;;;;;3.33;2.50;;;18.30;49.80;;;;;;4997829;28;20306;-83
2021/05/31 12:38:20;;;;;;;5.57;2.80;;;18.10;50.60;;;;;;4995366;28;20210;-83
2021/05/31 12:40:51;;;;;;;3.47;3.17;;;17.80;50.20;;;;;;5000781;28;20208;-87
2021/05/31 12:43:37;;;;;;;3.97;3.53;;;17.50;49.20;;;;;;5010385;28;20215;-84
2021/05/31 12:46:16;;;;;;;4.03;2.47;;;17.20;49.00;;;;;;5008271;28;20664;-83
2021/05/31 12:48:48;;;;;;;2.00;1.90;;;17.30;49.00;;;;;;4993433;28;20200;-82
2021/05/31 12:51:17;;;;;;;2.57;2.20;;;17.60;48.70;;;;;;4997261;28;20207;-81
2021/05/31 12:53:48;;;;;;;2.53;1.97;;;18.00;50.60;;;;;;4992011;28;20211;-82
2021/05/31 12:56:16;;;;;;;2.47;2.00;;;18.70;50.80;;;;;;4988256;28;20207;-83
2021/05/31 12:59:05;;;;;;;2.77;2.10;;;19.30;47.30;;;;;;4994556;28;20291;-83
2021/05/31 13:01:34;;;;;;;2.60;1.70;;;19.60;46.00;;;;;;4994530;28;20299;-82
2021/05/31 13:04:03;;;;;;;3.93;2.30;;;19.80;47.90;;;;;;4996410;28;20230;-82
2021/05/31 13:06:33;;;;;;;2.30;2.10;;;19.90;48.50;;;;;;5003088;28;20255;-79
2021/05/31 13:09:28;;;;;;;2.87;2.60;;;19.40;47.50;;;;;;4987292;28;20196;-83
2021/05/31 13:12:00;;;;;;;2.60;1.97;;;19.00;47.80;;;;;;5001870;28;20310;-82
2021/05/31 13:14:31;;;;;;;3.57;1.97;;;19.10;48.70;;;;;;4998507;28;20285;-80
2021/05/31 13:17:00;;;;;;;5.03;2.20;;;19.40;47.80;;;;;;4994683;28;20708;-85
2021/05/31 13:19:32;;;;;;;4.50;1.90;;;19.50;47.40;;;;;;4998795;28;20330;-82
2021/05/31 13:22:02;;;;;;;2.80;1.90;;;19.80;47.70;;;;;;5000800;28;20651;-82
2021/05/31 13:24:35;;;;;;;2.60;1.13;;;19.70;47.60;;;;;;4997453;28;20834;-83